sensor_id;sensor_type;location;lat;lon;timestamp;P1;durP1;ratioP1;P2;durP2;ratioP2
56746;SDS011;42623;49.978;9.966;2022-08-01T00:00:06;6.10;;;3.30;;
56746;SDS011;42623;49.978;9.966;2022-08-01T00:00:16;6.24;;;3.26;;
56746;SDS011;42623;49.978;9.966;2022-08-01T00:00:27;6.00;;;3.20;;
56746;SDS011;42623;49.978;9.966;2022-08-01T00:00:37;5.60;;;2.93;;
56746;SDS011;42623;49.978;9.966;2022-08-01T00:00:47;5.30;;;2.73;;
56746;SDS011;42623;49.978;9.966;2022-08-01T00:00:57;5.47;;;2.83;;
56746;SDS011;42623;49.978;9.966;2022-08-01T00:01:07;5.60;;;2.90;;
56746;SDS011;42623;49.978;9.966;2022-08-01T00:01:17;5.83;;;3.00;;
56746;SDS011;42623;49.978;9.966;2022-08-01T00:01:27;6.10;;;3.03;;
56746;SDS011;42623;49.978;9.966;2022-08-01T00:01:38;5.97;;;2.97;;
56746;SDS011;42623;49.978;9.966;2022-08-01T00:01:48;6.10;;;3.10;;
56746;SDS011;42623;49.978;9.966;2022-08-01T00:01:58;5.87;;;3.10;;
56746;SDS011;42623;49.978;9.966;2022-08-01T00:02:08;5.60;;;2.88;;
56746;SDS011;42623;49.978;9.966;2022-08-01T00:02:18;5.40;;;2.70;;
56746;SDS011;42623;49.978;9.966;2022-08-01T00:02:28;5.70;;;2.70;;
56746;SDS011;42623;49.978;9.966;2022-08-01T00:02:39;6.00;;;2.87;;
56746;SDS011;42623;49.978;9.966;2022-08-01T00:02:49;6.32;;;3.08;;
56746;SDS011;42623;49.978;9.966;2022-08-01T00:02:59;6.20;;;3.10;;
56746;SDS011;42623;49.978;9.966;2022-08-01T00:03:09;6.47;;;3.03;;
56746;SDS011;42623;49.978;9.966;2022-08-01T00:03:20;6.20;;;2.93;;
56746;SDS011;42623;49.978;9.966;2022-08-01T00:03:30;5.88;;;2.90;;
56746;SDS011;42623;49.978;9.966;2022-08-01T00:03:40;5.27;;;2.73;;
56746;SDS011;42623;49.978;9.966;2022-08-01T00:03:51;5.47;;;2.70;;
56746;SDS011;42623;49.978;9.966;2022-08-01T00:04:02;5.50;;;2.70;;
56746;SDS011;42623;49.978;9.966;2022-08-01T00:04:12;5.50;;;2.70;;
56746;SDS011;42623;49.978;9.966;2022-08-01T00:04:23;5.60;;;2.70;;
56746;SDS011;42623;49.978;9.966;2022-08-01T00:04:33;5.90;;;2.77;;
56746;SDS011;42623;49.978;9.966;2022-08-01T00:04:43;6.10;;;3.10;;
56746;SDS011;42623;49.978;9.966;2022-08-01T00:04:54;5.80;;;3.00;;
56746;SDS011;42623;49.978;9.966;2022-08-01T00:05:04;5.88;;;3.20;;
56746;SDS011;42623;49.978;9.966;2022-08-01T00:05:15;6.00;;;3.03;;
56746;SDS011;42623;49.978;9.966;2022-08-01T00:05:25;6.05;;;3.20;;
56746;SDS011;42623;49.978;9.966;2022-08-01T00:05:36;5.73;;;3.03;;
56746;SDS011;42623;49.978;9.966;2022-08-01T00:05:47;6.43;;;3.27;;
56746;SDS011;42623;49.978;9.966;2022-08-01T00:05:57;6.78;;;3.47;;
56746;SDS011;42623;49.978;9.966;2022-08-01T00:06:07;6.93;;;3.57;;
56746;SDS011;42623;49.978;9.966;2022-08-01T00:06:17;6.07;;;3.40;;
56746;SDS011;42623;49.978;9.966;2022-08-01T00:06:27;5.53;;;2.97;;
56746;SDS011;42623;49.978;9.966;2022-08-01T00:06:37;5.27;;;2.77;;
56746;SDS011;42623;49.978;9.966;2022-08-01T00:06:48;5.80;;;3.07;;
56746;SDS011;42623;49.978;9.966;2022-08-01T00:06:58;6.17;;;3.30;;
56746;SDS011;42623;49.978;9.966;2022-08-01T00:07:08;6.23;;;3.43;;
56746;SDS011;42623;49.978;9.966;2022-08-01T00:07:18;6.45;;;3.40;;
56746;SDS011;42623;49.978;9.966;2022-08-01T00:07:28;6.30;;;3.43;;
56746;SDS011;42623;49.978;9.966;2022-08-01T00:07:39;6.20;;;3.30;;
56746;SDS011;42623;49.978;9.966;2022-08-01T00:07:49;6.00;;;3.50;;
56746;SDS011;42623;49.978;9.966;2022-08-01T00:07:59;6.07;;;3.50;;
56746;SDS011;42623;49.978;9.966;2022-08-01T00:08:09;6.22;;;3.75;;
56746;SDS011;42623;49.978;9.966;2022-08-01T00:08:19;6.20;;;3.33;;
56746;SDS011;42623;49.978;9.966;2022-08-01T00:08:29;5.90;;;3.20;;
56746;SDS011;42623;49.978;9.966;2022-08-01T00:08:40;5.97;;;3.03;;
56746;SDS011;42623;49.978;9.966;2022-08-01T00:08:50;5.70;;;3.03;;
56746;SDS011;42623;49.978;9.966;2022-08-01T00:09:00;5.82;;;3.15;;
56746;SDS011;42623;49.978;9.966;2022-08-01T00:09:10;5.90;;;3.20;;
56746;SDS011;42623;49.978;9.966;2022-08-01T00:09:20;5.97;;;3.20;;
56746;SDS011;42623;49.978;9.966;2022-08-01T00:09:30;6.10;;;3.17;;
56746;SDS011;42623;49.978;9.966;2022-08-01T00:09:41;5.97;;;3.07;;
56746;SDS011;42623;49.978;9.966;2022-08-01T00:09:51;6.03;;;3.20;;
56746;SDS011;42623;49.978;9.966;2022-08-01T00:10:02;6.25;;;3.20;;
56746;SDS011;42623;49.978;9.966;2022-08-01T00:10:13;6.18;;;3.10;;
56746;SDS011;42623;49.978;9.966;2022-08-01T00:10:24;6.10;;;3.08;;
56746;SDS011;42623;49.978;9.966;2022-08-01T00:10:34;5.80;;;3.00;;
56746;SDS011;42623;49.978;9.966;2022-08-01T00:10:44;6.80;;;3.10;;
56746;SDS011;42623;49.978;9.966;2022-08-01T00:10:54;6.77;;;3.03;;
56746;SDS011;42623;49.978;9.966;2022-08-01T00:11:04;6.73;;;3.10;;
56746;SDS011;42623;49.978;9.966;2022-08-01T00:11:15;5.50;;;2.87;;
56746;SDS011;42623;49.978;9.966;2022-08-01T00:11:25;5.68;;;3.22;;
56746;SDS011;42623;49.978;9.966;2022-08-01T00:11:35;5.77;;;3.37;;
56746;SDS011;42623;49.978;9.966;2022-08-01T00:11:45;6.23;;;3.50;;
56746;SDS011;42623;49.978;9.966;2022-08-01T00:11:56;6.22;;;3.30;;
56746;SDS011;42623;49.978;9.966;2022-08-01T00:12:06;6.43;;;3.37;;
56746;SDS011;42623;49.978;9.966;2022-08-01T00:12:16;6.50;;;3.47;;
56746;SDS011;42623;49.978;9.966;2022-08-01T00:12:26;6.47;;;3.50;;
56746;SDS011;42623;49.978;9.966;2022-08-01T00:12:36;6.60;;;3.47;;
56746;SDS011;42623;49.978;9.966;2022-08-01T00:12:46;6.32;;;3.50;;
56746;SDS011;42623;49.978;9.966;2022-08-01T00:12:57;6.47;;;3.50;;
56746;SDS011;42623;49.978;9.966;2022-08-01T00:13:07;6.43;;;3.50;;
56746;SDS011;42623;49.978;9.966;2022-08-01T00:13:17;6.57;;;3.47;;
56746;SDS011;42623;49.978;9.966;2022-08-01T00:13:27;6.30;;;3.47;;
56746;SDS011;42623;49.978;9.966;2022-08-01T00:13:37;6.47;;;3.60;;
56746;SDS011;42623;49.978;9.966;2022-08-01T00:13:47;6.68;;;3.75;;
56746;SDS011;42623;49.978;9.966;2022-08-01T00:13:58;7.10;;;4.20;;
56746;SDS011;42623;49.978;9.966;2022-08-01T00:14:08;7.30;;;4.10;;
56746;SDS011;42623;49.978;9.966;2022-08-01T00:14:19;7.38;;;4.22;;
56746;SDS011;42623;49.978;9.966;2022-08-01T00:14:29;7.00;;;3.70;;
56746;SDS011;42623;49.978;9.966;2022-08-01T00:14:39;6.97;;;3.77;;
56746;SDS011;42623;49.978;9.966;2022-08-01T00:14:49;7.00;;;3.67;;
56746;SDS011;42623;49.978;9.966;2022-08-01T00:15:00;7.23;;;3.80;;
56746;SDS011;42623;49.978;9.966;2022-08-01T00:15:11;6.83;;;3.60;;
56746;SDS011;42623;49.978;9.966;2022-08-01T00:15:21;6.45;;;3.70;;
56746;SDS011;42623;49.978;9.966;2022-08-01T00:15:31;6.60;;;3.60;;
56746;SDS011;42623;49.978;9.966;2022-08-01T00:15:42;6.73;;;3.60;;
56746;SDS011;42623;49.978;9.966;2022-08-01T00:15:52;8.00;;;3.95;;
56746;SDS011;42623;49.978;9.966;2022-08-01T00:16:02;7.43;;;3.90;;
56746;SDS011;42623;49.978;9.966;2022-08-01T00:16:12;7.87;;;3.93;;
56746;SDS011;42623;49.978;9.966;2022-08-01T00:16:23;6.57;;;3.37;;
56746;SDS011;42623;49.978;9.966;2022-08-01T00:16:33;6.90;;;3.37;;
56746;SDS011;42623;49.978;9.966;2022-08-01T00:16:43;6.00;;;3.13;;
56746;SDS011;42623;49.978;9.966;2022-08-01T00:16:53;6.07;;;3.20;;
56746;SDS011;42623;49.978;9.966;2022-08-01T00:17:03;5.87;;;3.10;;
56746;SDS011;42623;49.978;9.966;2022-08-01T00:17:13;6.07;;;3.10;;
56746;SDS011;42623;49.978;9.966;2022-08-01T00:17:24;6.10;;;3.30;;
56746;SDS011;42623;49.978;9.966;2022-08-01T00:17:34;6.03;;;3.42;;
56746;SDS011;42623;49.978;9.966;2022-08-01T00:17:44;5.90;;;3.47;;
56746;SDS011;42623;49.978;9.966;2022-08-01T00:17:54;6.20;;;3.33;;
56746;SDS011;42623;49.978;9.966;2022-08-01T00:18:05;6.10;;;3.23;;
56746;SDS011;42623;49.978;9.966;2022-08-01T00:18:15;6.45;;;3.40;;
56746;SDS011;42623;49.978;9.966;2022-08-01T00:18:25;5.90;;;3.20;;
56746;SDS011;42623;49.978;9.966;2022-08-01T00:18:35;5.97;;;3.20;;
56746;SDS011;42623;49.978;9.966;2022-08-01T00:18:45;5.87;;;3.40;;
56746;SDS011;42623;49.978;9.966;2022-08-01T00:18:55;5.90;;;3.40;;
56746;SDS011;42623;49.978;9.966;2022-08-01T00:19:06;6.00;;;3.43;;
56746;SDS011;42623;49.978;9.966;2022-08-01T00:19:16;5.77;;;3.03;;
56746;SDS011;42623;49.978;9.966;2022-08-01T00:19:26;5.90;;;3.10;;
56746;SDS011;42623;49.978;9.966;2022-08-01T00:19:36;6.40;;;3.07;;
56746;SDS011;42623;49.978;9.966;2022-08-01T00:19:47;6.85;;;3.28;;
56746;SDS011;42623;49.978;9.966;2022-08-01T00:19:57;7.10;;;3.70;;
56746;SDS011;42623;49.978;9.966;2022-08-01T00:20:08;6.83;;;3.80;;
56746;SDS011;42623;49.978;9.966;2022-08-01T00:20:18;6.40;;;3.60;;
56746;SDS011;42623;49.978;9.966;2022-08-01T00:20:29;6.27;;;3.17;;
56746;SDS011;42623;49.978;9.966;2022-08-01T00:20:39;6.37;;;3.10;;
56746;SDS011;42623;49.978;9.966;2022-08-01T00:20:49;6.33;;;3.07;;
56746;SDS011;42623;49.978;9.966;2022-08-01T00:20:59;7.40;;;3.20;;
56746;SDS011;42623;49.978;9.966;2022-08-01T00:21:09;7.07;;;3.03;;
56746;SDS011;42623;49.978;9.966;2022-08-01T00:21:19;7.60;;;3.07;;
56746;SDS011;42623;49.978;9.966;2022-08-01T00:21:30;6.47;;;3.23;;
56746;SDS011;42623;49.978;9.966;2022-08-01T00:21:40;6.53;;;3.40;;
56746;SDS011;42623;49.978;9.966;2022-08-01T00:21:50;6.10;;;3.23;;
56746;SDS011;42623;49.978;9.966;2022-08-01T00:22:00;5.97;;;2.90;;
56746;SDS011;42623;49.978;9.966;2022-08-01T00:22:10;5.93;;;2.67;;
56746;SDS011;42623;49.978;9.966;2022-08-01T00:22:21;6.10;;;3.13;;
56746;SDS011;42623;49.978;9.966;2022-08-01T00:22:31;6.00;;;3.13;;
56746;SDS011;42623;49.978;9.966;2022-08-01T00:22:41;6.13;;;3.60;;
56746;SDS011;42623;49.978;9.966;2022-08-01T00:22:51;6.23;;;3.60;;
56746;SDS011;42623;49.978;9.966;2022-08-01T00:23:02;6.30;;;3.63;;
56746;SDS011;42623;49.978;9.966;2022-08-01T00:23:12;6.65;;;3.53;;
56746;SDS011;42623;49.978;9.966;2022-08-01T00:23:23;6.50;;;3.30;;
56746;SDS011;42623;49.978;9.966;2022-08-01T00:23:33;6.23;;;3.10;;
56746;SDS011;42623;49.978;9.966;2022-08-01T00:23:43;6.00;;;3.05;;
56746;SDS011;42623;49.978;9.966;2022-08-01T00:23:55;5.97;;;3.47;;
56746;SDS011;42623;49.978;9.966;2022-08-01T00:24:05;5.95;;;3.42;;
56746;SDS011;42623;49.978;9.966;2022-08-01T00:24:15;5.93;;;3.50;;
56746;SDS011;42623;49.978;9.966;2022-08-01T00:24:25;5.93;;;3.23;;
56746;SDS011;42623;49.978;9.966;2022-08-01T00:24:35;6.27;;;3.37;;
56746;SDS011;42623;49.978;9.966;2022-08-01T00:24:46;6.10;;;3.23;;
56746;SDS011;42623;49.978;9.966;2022-08-01T00:24:56;6.20;;;3.38;;
56746;SDS011;42623;49.978;9.966;2022-08-01T00:25:06;6.03;;;3.30;;
56746;SDS011;42623;49.978;9.966;2022-08-01T00:25:16;6.23;;;3.30;;
56746;SDS011;42623;49.978;9.966;2022-08-01T00:25:26;7.23;;;3.33;;
56746;SDS011;42623;49.978;9.966;2022-08-01T00:25:37;7.25;;;3.40;;
56746;SDS011;42623;49.978;9.966;2022-08-01T00:25:47;6.77;;;3.30;;
56746;SDS011;42623;49.978;9.966;2022-08-01T00:25:57;5.87;;;3.13;;
56746;SDS011;42623;49.978;9.966;2022-08-01T00:26:07;5.83;;;3.00;;
56746;SDS011;42623;49.978;9.966;2022-08-01T00:26:17;5.97;;;3.10;;
56746;SDS011;42623;49.978;9.966;2022-08-01T00:26:27;5.93;;;3.10;;
56746;SDS011;42623;49.978;9.966;2022-08-01T00:26:37;5.95;;;3.28;;
56746;SDS011;42623;49.978;9.966;2022-08-01T00:26:48;6.00;;;3.30;;
56746;SDS011;42623;49.978;9.966;2022-08-01T00:26:58;6.27;;;3.30;;
56746;SDS011;42623;49.978;9.966;2022-08-01T00:27:08;6.27;;;3.13;;
56746;SDS011;42623;49.978;9.966;2022-08-01T00:27:18;6.50;;;3.30;;
56746;SDS011;42623;49.978;9.966;2022-08-01T00:27:28;6.47;;;3.33;;
56746;SDS011;42623;49.978;9.966;2022-08-01T00:27:38;6.47;;;3.47;;
56746;SDS011;42623;49.978;9.966;2022-08-01T00:27:48;6.17;;;3.23;;
56746;SDS011;42623;49.978;9.966;2022-08-01T00:27:59;5.93;;;3.07;;
56746;SDS011;42623;49.978;9.966;2022-08-01T00:28:09;5.77;;;2.93;;
56746;SDS011;42623;49.978;9.966;2022-08-01T00:28:19;5.82;;;3.05;;
56746;SDS011;42623;49.978;9.966;2022-08-01T00:28:29;5.83;;;3.03;;
56746;SDS011;42623;49.978;9.966;2022-08-01T00:28:40;6.03;;;3.00;;
56746;SDS011;42623;49.978;9.966;2022-08-01T00:28:50;6.10;;;3.17;;
56746;SDS011;42623;49.978;9.966;2022-08-01T00:29:00;6.18;;;3.28;;
56746;SDS011;42623;49.978;9.966;2022-08-01T00:29:10;6.40;;;3.30;;
56746;SDS011;42623;49.978;9.966;2022-08-01T00:29:20;6.17;;;3.10;;
56746;SDS011;42623;49.978;9.966;2022-08-01T00:29:31;6.23;;;3.00;;
56746;SDS011;42623;49.978;9.966;2022-08-01T00:29:41;6.30;;;3.23;;
56746;SDS011;42623;49.978;9.966;2022-08-01T00:29:51;6.27;;;3.23;;
56746;SDS011;42623;49.978;9.966;2022-08-01T00:30:01;6.05;;;3.38;;
56746;SDS011;42623;49.978;9.966;2022-08-01T00:30:11;5.83;;;3.20;;
56746;SDS011;42623;49.978;9.966;2022-08-01T00:30:21;5.80;;;3.20;;
56746;SDS011;42623;49.978;9.966;2022-08-01T00:30:32;5.97;;;3.13;;
56746;SDS011;42623;49.978;9.966;2022-08-01T00:30:42;6.20;;;3.20;;
56746;SDS011;42623;49.978;9.966;2022-08-01T00:30:52;6.45;;;3.25;;
56746;SDS011;42623;49.978;9.966;2022-08-01T00:31:02;7.07;;;3.30;;
56746;SDS011;42623;49.978;9.966;2022-08-01T00:31:12;6.83;;;3.20;;
56746;SDS011;42623;49.978;9.966;2022-08-01T00:31:22;6.60;;;3.13;;
56746;SDS011;42623;49.978;9.966;2022-08-01T00:31:32;5.87;;;3.10;;
56746;SDS011;42623;49.978;9.966;2022-08-01T00:31:43;5.67;;;3.17;;
56746;SDS011;42623;49.978;9.966;2022-08-01T00:31:53;5.60;;;3.13;;
56746;SDS011;42623;49.978;9.966;2022-08-01T00:32:03;5.63;;;3.03;;
56746;SDS011;42623;49.978;9.966;2022-08-01T00:32:13;5.73;;;2.97;;
56746;SDS011;42623;49.978;9.966;2022-08-01T00:32:24;6.03;;;2.80;;
56746;SDS011;42623;49.978;9.966;2022-08-01T00:32:34;6.50;;;2.83;;
56746;SDS011;42623;49.978;9.966;2022-08-01T00:32:44;7.77;;;3.17;;
56746;SDS011;42623;49.978;9.966;2022-08-01T00:32:54;7.77;;;3.43;;
56746;SDS011;42623;49.978;9.966;2022-08-01T00:33:04;7.43;;;3.47;;
56746;SDS011;42623;49.978;9.966;2022-08-01T00:33:14;6.13;;;3.30;;
56746;SDS011;42623;49.978;9.966;2022-08-01T00:33:25;6.00;;;3.23;;
56746;SDS011;42623;49.978;9.966;2022-08-01T00:33:35;5.83;;;3.17;;
56746;SDS011;42623;49.978;9.966;2022-08-01T00:33:45;5.67;;;3.00;;
56746;SDS011;42623;49.978;9.966;2022-08-01T00:33:55;6.00;;;2.97;;
56746;SDS011;42623;49.978;9.966;2022-08-01T00:34:05;6.13;;;3.00;;
56746;SDS011;42623;49.978;9.966;2022-08-01T00:34:16;6.67;;;3.43;;
56746;SDS011;42623;49.978;9.966;2022-08-01T00:34:26;6.33;;;3.43;;
56746;SDS011;42623;49.978;9.966;2022-08-01T00:34:36;6.47;;;3.73;;
56746;SDS011;42623;49.978;9.966;2022-08-01T00:34:46;5.82;;;3.40;;
56746;SDS011;42623;49.978;9.966;2022-08-01T00:34:56;6.33;;;3.53;;
56746;SDS011;42623;49.978;9.966;2022-08-01T00:35:07;6.03;;;3.17;;
56746;SDS011;42623;49.978;9.966;2022-08-01T00:35:17;5.83;;;3.10;;
56746;SDS011;42623;49.978;9.966;2022-08-01T00:35:27;5.53;;;2.97;;
56746;SDS011;42623;49.978;9.966;2022-08-01T00:35:37;5.70;;;3.10;;
56746;SDS011;42623;49.978;9.966;2022-08-01T00:35:47;5.90;;;3.00;;
56746;SDS011;42623;49.978;9.966;2022-08-01T00:35:57;5.63;;;3.00;;
56746;SDS011;42623;49.978;9.966;2022-08-01T00:36:08;6.27;;;3.27;;
56746;SDS011;42623;49.978;9.966;2022-08-01T00:36:18;6.37;;;3.20;;
56746;SDS011;42623;49.978;9.966;2022-08-01T00:36:28;6.97;;;3.27;;
56746;SDS011;42623;49.978;9.966;2022-08-01T00:36:38;6.72;;;3.10;;
56746;SDS011;42623;49.978;9.966;2022-08-01T00:36:48;6.50;;;3.03;;
56746;SDS011;42623;49.978;9.966;2022-08-01T00:36:58;6.47;;;3.10;;
56746;SDS011;42623;49.978;9.966;2022-08-01T00:37:08;6.10;;;3.00;;
56746;SDS011;42623;49.978;9.966;2022-08-01T00:37:19;6.33;;;3.07;;
56746;SDS011;42623;49.978;9.966;2022-08-01T00:37:29;6.83;;;3.20;;
56746;SDS011;42623;49.978;9.966;2022-08-01T00:37:39;7.07;;;3.30;;
56746;SDS011;42623;49.978;9.966;2022-08-01T00:37:49;7.00;;;3.43;;
56746;SDS011;42623;49.978;9.966;2022-08-01T00:37:59;6.27;;;3.23;;
56746;SDS011;42623;49.978;9.966;2022-08-01T00:38:09;6.13;;;3.07;;
56746;SDS011;42623;49.978;9.966;2022-08-01T00:38:21;6.00;;;2.92;;
56746;SDS011;42623;49.978;9.966;2022-08-01T00:38:31;5.38;;;2.72;;
56746;SDS011;42623;49.978;9.966;2022-08-01T00:38:41;5.37;;;2.70;;
56746;SDS011;42623;49.978;9.966;2022-08-01T00:38:51;5.67;;;3.17;;
56746;SDS011;42623;49.978;9.966;2022-08-01T00:39:02;6.93;;;3.53;;
56746;SDS011;42623;49.978;9.966;2022-08-01T00:39:12;7.70;;;3.70;;
56746;SDS011;42623;49.978;9.966;2022-08-01T00:39:22;7.93;;;3.27;;
56746;SDS011;42623;49.978;9.966;2022-08-01T00:39:32;6.73;;;3.00;;
56746;SDS011;42623;49.978;9.966;2022-08-01T00:39:43;6.30;;;3.05;;
56746;SDS011;42623;49.978;9.966;2022-08-01T00:39:53;5.80;;;3.10;;
56746;SDS011;42623;49.978;9.966;2022-08-01T00:40:03;6.37;;;3.10;;
56746;SDS011;42623;49.978;9.966;2022-08-01T00:40:13;6.73;;;2.90;;
56746;SDS011;42623;49.978;9.966;2022-08-01T00:40:23;6.75;;;2.88;;
56746;SDS011;42623;49.978;9.966;2022-08-01T00:40:34;6.43;;;2.97;;
56746;SDS011;42623;49.978;9.966;2022-08-01T00:40:44;6.07;;;3.37;;
56746;SDS011;42623;49.978;9.966;2022-08-01T00:40:54;6.40;;;3.47;;
56746;SDS011;42623;49.978;9.966;2022-08-01T00:41:04;6.07;;;3.43;;
56746;SDS011;42623;49.978;9.966;2022-08-01T00:41:14;6.00;;;3.10;;
56746;SDS011;42623;49.978;9.966;2022-08-01T00:41:24;5.57;;;2.97;;
56746;SDS011;42623;49.978;9.966;2022-08-01T00:41:35;6.00;;;3.33;;
56746;SDS011;42623;49.978;9.966;2022-08-01T00:41:45;6.13;;;3.30;;
56746;SDS011;42623;49.978;9.966;2022-08-01T00:41:55;6.17;;;3.37;;
56746;SDS011;42623;49.978;9.966;2022-08-01T00:42:05;6.13;;;3.20;;
56746;SDS011;42623;49.978;9.966;2022-08-01T00:42:16;6.00;;;3.10;;
56746;SDS011;42623;49.978;9.966;2022-08-01T00:42:26;6.30;;;3.27;;
56746;SDS011;42623;49.978;9.966;2022-08-01T00:42:36;6.17;;;2.90;;
56746;SDS011;42623;49.978;9.966;2022-08-01T00:42:46;5.90;;;2.80;;
56746;SDS011;42623;49.978;9.966;2022-08-01T00:42:56;5.83;;;2.80;;
56746;SDS011;42623;49.978;9.966;2022-08-01T00:43:06;5.63;;;3.00;;
56746;SDS011;42623;49.978;9.966;2022-08-01T00:43:17;6.00;;;3.27;;
56746;SDS011;42623;49.978;9.966;2022-08-01T00:43:27;5.87;;;3.50;;
56746;SDS011;42623;49.978;9.966;2022-08-01T00:43:37;6.03;;;3.70;;
56746;SDS011;42623;49.978;9.966;2022-08-01T00:43:47;6.17;;;3.50;;
56746;SDS011;42623;49.978;9.966;2022-08-01T00:43:57;6.10;;;3.20;;
56746;SDS011;42623;49.978;9.966;2022-08-01T00:44:08;6.30;;;3.23;;
56746;SDS011;42623;49.978;9.966;2022-08-01T00:44:18;6.32;;;3.50;;
56746;SDS011;42623;49.978;9.966;2022-08-01T00:44:28;6.73;;;3.90;;
56746;SDS011;42623;49.978;9.966;2022-08-01T00:44:38;7.10;;;4.03;;
56746;SDS011;42623;49.978;9.966;2022-08-01T00:44:48;7.10;;;3.90;;
56746;SDS011;42623;49.978;9.966;2022-08-01T00:44:59;7.13;;;3.83;;
56746;SDS011;42623;49.978;9.966;2022-08-01T00:45:09;6.80;;;3.50;;
56746;SDS011;42623;49.978;9.966;2022-08-01T00:45:19;7.10;;;3.57;;
56746;SDS011;42623;49.978;9.966;2022-08-01T00:45:29;6.87;;;3.37;;
56746;SDS011;42623;49.978;9.966;2022-08-01T00:45:40;6.85;;;3.50;;
56746;SDS011;42623;49.978;9.966;2022-08-01T00:45:50;6.63;;;3.40;;
56746;SDS011;42623;49.978;9.966;2022-08-01T00:46:00;6.63;;;3.27;;
56746;SDS011;42623;49.978;9.966;2022-08-01T00:46:10;6.50;;;3.23;;
56746;SDS011;42623;49.978;9.966;2022-08-01T00:46:20;6.00;;;3.20;;
56746;SDS011;42623;49.978;9.966;2022-08-01T00:46:31;6.35;;;3.63;;
56746;SDS011;42623;49.978;9.966;2022-08-01T00:46:41;6.30;;;3.67;;
56746;SDS011;42623;49.978;9.966;2022-08-01T00:46:51;6.40;;;3.60;;
56746;SDS011;42623;49.978;9.966;2022-08-01T00:47:02;6.10;;;3.05;;
56746;SDS011;42623;49.978;9.966;2022-08-01T00:47:12;6.93;;;3.07;;
56746;SDS011;42623;49.978;9.966;2022-08-01T00:47:22;7.07;;;3.13;;
56746;SDS011;42623;49.978;9.966;2022-08-01T00:47:32;6.82;;;3.20;;
56746;SDS011;42623;49.978;9.966;2022-08-01T00:47:42;6.47;;;3.23;;
56746;SDS011;42623;49.978;9.966;2022-08-01T00:47:53;6.57;;;3.47;;
56746;SDS011;42623;49.978;9.966;2022-08-01T00:48:03;6.67;;;3.33;;
56746;SDS011;42623;49.978;9.966;2022-08-01T00:48:13;6.50;;;3.23;;
56746;SDS011;42623;49.978;9.966;2022-08-01T00:48:23;6.68;;;3.13;;
56746;SDS011;42623;49.978;9.966;2022-08-01T00:48:34;6.83;;;3.10;;
56746;SDS011;42623;49.978;9.966;2022-08-01T00:48:44;6.80;;;3.27;;
56746;SDS011;42623;49.978;9.966;2022-08-01T00:48:54;6.28;;;3.10;;
56746;SDS011;42623;49.978;9.966;2022-08-01T00:49:05;5.80;;;3.10;;
56746;SDS011;42623;49.978;9.966;2022-08-01T00:49:15;5.80;;;3.00;;
56746;SDS011;42623;49.978;9.966;2022-08-01T00:49:25;5.90;;;3.13;;
56746;SDS011;42623;49.978;9.966;2022-08-01T00:49:35;6.53;;;3.30;;
56746;SDS011;42623;49.978;9.966;2022-08-01T00:49:45;6.27;;;3.10;;
56746;SDS011;42623;49.978;9.966;2022-08-01T00:49:56;6.27;;;3.43;;
56746;SDS011;42623;49.978;9.966;2022-08-01T00:50:06;6.03;;;3.25;;
56746;SDS011;42623;49.978;9.966;2022-08-01T00:50:17;6.30;;;3.47;;
56746;SDS011;42623;49.978;9.966;2022-08-01T00:50:27;6.40;;;3.15;;
56746;SDS011;42623;49.978;9.966;2022-08-01T00:50:37;6.37;;;3.20;;
56746;SDS011;42623;49.978;9.966;2022-08-01T00:50:48;6.43;;;3.13;;
56746;SDS011;42623;49.978;9.966;2022-08-01T00:50:58;6.75;;;2.90;;
56746;SDS011;42623;49.978;9.966;2022-08-01T00:51:08;6.77;;;2.90;;
56746;SDS011;42623;49.978;9.966;2022-08-01T00:51:19;6.60;;;2.83;;
56746;SDS011;42623;49.978;9.966;2022-08-01T00:51:29;5.78;;;2.80;;
56746;SDS011;42623;49.978;9.966;2022-08-01T00:51:40;5.93;;;3.10;;
56746;SDS011;42623;49.978;9.966;2022-08-01T00:51:50;6.22;;;3.55;;
56746;SDS011;42623;49.978;9.966;2022-08-01T00:52:00;6.40;;;3.80;;
56746;SDS011;42623;49.978;9.966;2022-08-01T00:52:12;6.78;;;3.40;;
56746;SDS011;42623;49.978;9.966;2022-08-01T00:52:22;6.90;;;3.10;;
56746;SDS011;42623;49.978;9.966;2022-08-01T00:52:32;6.93;;;2.93;;
56746;SDS011;42623;49.978;9.966;2022-08-01T00:52:43;6.25;;;2.85;;
56746;SDS011;42623;49.978;9.966;2022-08-01T00:52:53;6.07;;;3.03;;
56746;SDS011;42623;49.978;9.966;2022-08-01T00:53:04;6.30;;;3.22;;
56746;SDS011;42623;49.978;9.966;2022-08-01T00:53:15;6.50;;;3.30;;
56746;SDS011;42623;49.978;9.966;2022-08-01T00:53:25;6.57;;;3.13;;
56746;SDS011;42623;49.978;9.966;2022-08-01T00:53:35;6.50;;;3.03;;
56746;SDS011;42623;49.978;9.966;2022-08-01T00:53:45;6.85;;;2.97;;
56746;SDS011;42623;49.978;9.966;2022-08-01T00:53:56;6.77;;;2.90;;
56746;SDS011;42623;49.978;9.966;2022-08-01T00:54:06;6.83;;;3.07;;
56746;SDS011;42623;49.978;9.966;2022-08-01T00:54:16;5.97;;;3.00;;
56746;SDS011;42623;49.978;9.966;2022-08-01T00:54:26;6.30;;;3.25;;
56746;SDS011;42623;49.978;9.966;2022-08-01T00:54:37;5.97;;;3.17;;
56746;SDS011;42623;49.978;9.966;2022-08-01T00:54:47;6.00;;;3.07;;
56746;SDS011;42623;49.978;9.966;2022-08-01T00:54:57;6.75;;;3.08;;
56746;SDS011;42623;49.978;9.966;2022-08-01T00:55:08;7.60;;;3.20;;
56746;SDS011;42623;49.978;9.966;2022-08-01T00:55:19;7.60;;;3.30;;
56746;SDS011;42623;49.978;9.966;2022-08-01T00:55:29;6.80;;;3.37;;
56746;SDS011;42623;49.978;9.966;2022-08-01T00:55:40;6.15;;;3.22;;
56746;SDS011;42623;49.978;9.966;2022-08-01T00:55:50;6.17;;;3.30;;
56746;SDS011;42623;49.978;9.966;2022-08-01T00:56:01;6.00;;;3.00;;
56746;SDS011;42623;49.978;9.966;2022-08-01T00:56:11;6.35;;;3.50;;
56746;SDS011;42623;49.978;9.966;2022-08-01T00:56:24;6.37;;;3.57;;
56746;SDS011;42623;49.978;9.966;2022-08-01T00:56:34;6.30;;;3.40;;
56746;SDS011;42623;49.978;9.966;2022-08-01T00:56:45;6.37;;;3.20;;
56746;SDS011;42623;49.978;9.966;2022-08-01T00:56:55;6.60;;;3.22;;
56746;SDS011;42623;49.978;9.966;2022-08-01T00:57:05;7.10;;;3.40;;
56746;SDS011;42623;49.978;9.966;2022-08-01T00:57:16;6.83;;;3.33;;
56746;SDS011;42623;49.978;9.966;2022-08-01T00:57:26;6.30;;;3.20;;
56746;SDS011;42623;49.978;9.966;2022-08-01T00:57:36;5.77;;;3.03;;
56746;SDS011;42623;49.978;9.966;2022-08-01T00:57:47;5.60;;;2.90;;
56746;SDS011;42623;49.978;9.966;2022-08-01T00:57:58;5.68;;;2.90;;
56746;SDS011;42623;49.978;9.966;2022-08-01T00:58:08;5.95;;;2.95;;
56746;SDS011;42623;49.978;9.966;2022-08-01T00:58:18;6.70;;;3.10;;
56746;SDS011;42623;49.978;9.966;2022-08-01T00:58:29;6.88;;;3.55;;
56746;SDS011;42623;49.978;9.966;2022-08-01T00:58:42;6.40;;;3.60;;
56746;SDS011;42623;49.978;9.966;2022-08-01T00:58:53;7.37;;;3.97;;
56746;SDS011;42623;49.978;9.966;2022-08-01T00:59:03;7.03;;;3.45;;
56746;SDS011;42623;49.978;9.966;2022-08-01T00:59:13;6.87;;;3.53;;
56746;SDS011;42623;49.978;9.966;2022-08-01T00:59:23;6.28;;;3.28;;
56746;SDS011;42623;49.978;9.966;2022-08-01T00:59:34;6.43;;;3.23;;
56746;SDS011;42623;49.978;9.966;2022-08-01T00:59:44;6.47;;;3.20;;
56746;SDS011;42623;49.978;9.966;2022-08-01T00:59:54;6.20;;;3.07;;
56746;SDS011;42623;49.978;9.966;2022-08-01T01:00:05;6.27;;;3.30;;
56746;SDS011;42623;49.978;9.966;2022-08-01T01:00:16;6.28;;;3.15;;
56746;SDS011;42623;49.978;9.966;2022-08-01T01:00:26;6.15;;;3.17;;
56746;SDS011;42623;49.978;9.966;2022-08-01T01:00:36;6.03;;;3.17;;
56746;SDS011;42623;49.978;9.966;2022-08-01T01:00:47;6.13;;;3.17;;
56746;SDS011;42623;49.978;9.966;2022-08-01T01:00:57;6.30;;;3.40;;
56746;SDS011;42623;49.978;9.966;2022-08-01T01:01:07;6.43;;;3.30;;
56746;SDS011;42623;49.978;9.966;2022-08-01T01:01:18;6.20;;;3.30;;
56746;SDS011;42623;49.978;9.966;2022-08-01T01:01:30;6.30;;;3.17;;
56746;SDS011;42623;49.978;9.966;2022-08-01T01:01:40;6.25;;;3.20;;
56746;SDS011;42623;49.978;9.966;2022-08-01T01:01:50;6.23;;;3.40;;
56746;SDS011;42623;49.978;9.966;2022-08-01T01:02:00;6.13;;;3.30;;